Terminal Aerodrome Forecast
Issued by NWS Tulsa, OK

Home | Current Version | Previous Version | Text Only | Print | Product List | Glossary On
Versions: 1 2 3 4 5 6 7 8 9 10 11 12 13 14 15
000
FTUS44 KTSA 292320
TAFTUL
TAF
KTUL 292320Z 3000/3024 16004KT P6SM BKN250
     FM301500 16009KT P6SM SCT040 BKN250 PROB30 3018/3024 5SM -TSRA
      BKN040CB=

USA.gov is the U.S. government's official web portal to all federal, state and local government web resources and services.